MSR666 OEJN-HECA
Flight info
| Callsign | MSR666 |
|---|---|
| Flight time | 1h 38m |
| Altitude | 36000 |
| Route | MIGDA2W/34C MIGDA L677 CVO |
| Aircraft | B77W/H-SDE1E2E3FGHIJ2J3J4J5M1RWXY/LB1D1 |
Departure
| Time | 2026-05-05 15:46 |
|---|---|
| Airport | King Abdulaziz International Airport (OEJN) |
Arrival
| Time | 2026-05-05 17:24 |
|---|---|
| Airport | Cairo International Airport (HECA) |
| Time | Latitude | Longitude | Altitude | Speed | Heading |
|---|---|---|---|---|---|
| 2026-05-05 15:27 | 21.67140 | 39.16805 | 38 ft | 0 kts | 185° |
| 2026-05-05 15:31 | 21.67147 | 39.16806 | 37 ft | 3 kts | 183° |
| 2026-05-05 15:31 | 21.67174 | 39.16805 | 34 ft | 3 kts | 169° |
| 2026-05-05 15:31 | 21.67200 | 39.16797 | 33 ft | 3 kts | 149° |
| 2026-05-05 15:32 | 21.67218 | 39.16779 | 33 ft | 3 kts | 109° |
| 2026-05-05 15:32 | 21.67220 | 39.16773 | 34 ft | 0 kts | 99° |
| 2026-05-05 15:35 | 21.67220 | 39.16770 | 34 ft | 3 kts | 99° |
| 2026-05-05 15:36 | 21.67221 | 39.16764 | 35 ft | 0 kts | 99° |
| 2026-05-05 15:36 | 21.67223 | 39.16755 | 35 ft | 6 kts | 99° |
| 2026-05-05 15:36 | 21.67224 | 39.16747 | 35 ft | 0 kts | 98° |
| 2026-05-05 15:38 | 21.67227 | 39.16761 | 34 ft | 6 kts | 71° |
| 2026-05-05 15:38 | 21.67303 | 39.16773 | 37 ft | 18 kts | 348° |
| 2026-05-05 15:38 | 21.67459 | 39.16729 | 36 ft | 23 kts | 342° |
| 2026-05-05 15:38 | 21.67611 | 39.16677 | 37 ft | 23 kts | 342° |
| 2026-05-05 15:39 | 21.67644 | 39.16640 | 36 ft | 6 kts | 291° |
| 2026-05-05 15:39 | 21.67644 | 39.16596 | 36 ft | 6 kts | 252° |
| 2026-05-05 15:39 | 21.67630 | 39.16552 | 36 ft | 6 kts | 251° |
| 2026-05-05 15:39 | 21.67615 | 39.16508 | 36 ft | 6 kts | 250° |
| 2026-05-05 15:40 | 21.67600 | 39.16464 | 36 ft | 6 kts | 250° |
| 2026-05-05 15:40 | 21.67566 | 39.16363 | 35 ft | 16 kts | 250° |
| 2026-05-05 15:40 | 21.67530 | 39.16252 | 35 ft | 16 kts | 251° |
| 2026-05-05 15:40 | 21.67459 | 39.16160 | 35 ft | 17 kts | 188° |
| 2026-05-05 15:41 | 21.67344 | 39.16202 | 36 ft | 17 kts | 159° |
| 2026-05-05 15:41 | 21.67231 | 39.16250 | 37 ft | 17 kts | 159° |
| 2026-05-05 15:41 | 21.67119 | 39.16296 | 37 ft | 17 kts | 159° |
| 2026-05-05 15:41 | 21.67006 | 39.16343 | 38 ft | 17 kts | 159° |
| 2026-05-05 15:42 | 21.66891 | 39.16388 | 39 ft | 17 kts | 161° |
| 2026-05-05 15:42 | 21.66776 | 39.16430 | 39 ft | 17 kts | 161° |
| 2026-05-05 15:42 | 21.66661 | 39.16473 | 39 ft | 17 kts | 160° |
| 2026-05-05 15:42 | 21.66548 | 39.16520 | 40 ft | 17 kts | 159° |
| 2026-05-05 15:43 | 21.66435 | 39.16566 | 40 ft | 17 kts | 159° |
| 2026-05-05 15:43 | 21.66321 | 39.16612 | 40 ft | 17 kts | 160° |
| 2026-05-05 15:43 | 21.66243 | 39.16642 | 40 ft | 4 kts | 162° |
| 2026-05-05 15:43 | 21.66214 | 39.16649 | 40 ft | 4 kts | 176° |
| 2026-05-05 15:44 | 21.66187 | 39.16628 | 40 ft | 5 kts | 233° |
| 2026-05-05 15:44 | 21.66171 | 39.16589 | 40 ft | 0 kts | 252° |
| 2026-05-05 15:45 | 21.66171 | 39.16588 | 40 ft | 1 kts | 252° |
| 2026-05-05 15:45 | 21.66167 | 39.16577 | 39 ft | 2 kts | 253° |
| 2026-05-05 15:45 | 21.66161 | 39.16553 | 39 ft | 6 kts | 253° |
| 2026-05-05 15:45 | 21.66154 | 39.16479 | 39 ft | 13 kts | 294° |
| 2026-05-05 15:46 | 21.66261 | 39.16430 | 38 ft | 37 kts | 341° |
| 2026-05-05 15:46 | 21.66882 | 39.16178 | 40 ft | 152 kts | 336° |
| 2026-05-05 15:46 | 21.68037 | 39.15689 | 666 ft | 203 kts | 339° |
| 2026-05-05 15:46 | 21.69584 | 39.15103 | 900 ft | 254 kts | 342° |
| 2026-05-05 15:47 | 21.71330 | 39.14446 | 1390 ft | 279 kts | 341° |
| 2026-05-05 15:47 | 21.73206 | 39.13705 | 2271 ft | 291 kts | 340° |
| 2026-05-05 15:47 | 21.75067 | 39.12963 | 3375 ft | 274 kts | 340° |
| 2026-05-05 15:47 | 21.76788 | 39.12279 | 4474 ft | 256 kts | 339° |
| 2026-05-05 15:48 | 21.78455 | 39.11618 | 5329 ft | 262 kts | 338° |
| 2026-05-05 15:48 | 21.80181 | 39.10936 | 5893 ft | 268 kts | 338° |
| 2026-05-05 15:48 | 21.81960 | 39.10232 | 6016 ft | 274 kts | 338° |
| 2026-05-05 15:48 | 21.83738 | 39.09529 | 6555 ft | 278 kts | 338° |
| 2026-05-05 15:49 | 21.85565 | 39.08808 | 7377 ft | 279 kts | 337° |
| 2026-05-05 15:49 | 21.87403 | 39.08083 | 8165 ft | 285 kts | 337° |
| 2026-05-05 15:49 | 21.89288 | 39.07338 | 8892 ft | 292 kts | 336° |
| 2026-05-05 15:49 | 21.91187 | 39.06513 | 9669 ft | 296 kts | 334° |
| 2026-05-05 15:50 | 21.93080 | 39.05594 | 10368 ft | 304 kts | 332° |
| 2026-05-05 15:50 | 21.95074 | 39.04617 | 10707 ft | 328 kts | 333° |
| 2026-05-05 15:50 | 21.97249 | 39.03565 | 10920 ft | 356 kts | 333° |
| 2026-05-05 15:50 | 21.99599 | 39.02438 | 11158 ft | 381 kts | 333° |
| 2026-05-05 15:51 | 22.02058 | 39.01265 | 11897 ft | 390 kts | 332° |
| 2026-05-05 15:51 | 22.04530 | 39.00085 | 12742 ft | 397 kts | 332° |
| 2026-05-05 15:51 | 22.07073 | 38.98869 | 13670 ft | 402 kts | 332° |
| 2026-05-05 15:51 | 22.09657 | 38.97633 | 14494 ft | 407 kts | 332° |
| 2026-05-05 15:52 | 22.12261 | 38.96387 | 15342 ft | 412 kts | 333° |
| 2026-05-05 15:52 | 22.14899 | 38.95123 | 16163 ft | 417 kts | 332° |
| 2026-05-05 15:52 | 22.17577 | 38.93840 | 16979 ft | 423 kts | 333° |
| 2026-05-05 15:52 | 22.20292 | 38.92543 | 17773 ft | 429 kts | 332° |
| 2026-05-05 15:53 | 22.23037 | 38.91231 | 18521 ft | 434 kts | 333° |
| 2026-05-05 15:53 | 22.25815 | 38.89904 | 19245 ft | 438 kts | 333° |
| 2026-05-05 15:53 | 22.28613 | 38.88565 | 20019 ft | 441 kts | 332° |
| 2026-05-05 15:53 | 22.31395 | 38.87231 | 20764 ft | 444 kts | 332° |
| 2026-05-05 15:54 | 22.34233 | 38.85869 | 21453 ft | 449 kts | 332° |
| 2026-05-05 15:54 | 22.37108 | 38.84487 | 22095 ft | 455 kts | 332° |
| 2026-05-05 15:54 | 22.40014 | 38.83090 | 22739 ft | 460 kts | 332° |
| 2026-05-05 15:54 | 22.42954 | 38.81677 | 23373 ft | 464 kts | 331° |
| 2026-05-05 15:55 | 22.45923 | 38.80250 | 23910 ft | 469 kts | 331° |
| 2026-05-05 15:55 | 22.48921 | 38.78809 | 24453 ft | 472 kts | 331° |
| 2026-05-05 15:55 | 22.51934 | 38.77360 | 24994 ft | 475 kts | 331° |
| 2026-05-05 15:55 | 22.54968 | 38.75899 | 25511 ft | 479 kts | 330° |
| 2026-05-05 15:56 | 22.58021 | 38.74429 | 26059 ft | 482 kts | 330° |
| 2026-05-05 15:56 | 22.61100 | 38.72946 | 26580 ft | 485 kts | 330° |
| 2026-05-05 15:56 | 22.64186 | 38.71459 | 27110 ft | 488 kts | 330° |
| 2026-05-05 15:56 | 22.67283 | 38.70016 | 27607 ft | 492 kts | 331° |
| 2026-05-05 15:57 | 22.70465 | 38.68597 | 28083 ft | 496 kts | 331° |
| 2026-05-05 15:57 | 22.73688 | 38.67185 | 28527 ft | 500 kts | 331° |
| 2026-05-05 15:57 | 22.76920 | 38.65775 | 28962 ft | 503 kts | 331° |
| 2026-05-05 15:57 | 22.80183 | 38.64346 | 29369 ft | 506 kts | 331° |
| 2026-05-05 15:58 | 22.83453 | 38.62905 | 29762 ft | 508 kts | 330° |
| 2026-05-05 15:58 | 22.86736 | 38.61452 | 30161 ft | 509 kts | 330° |
| 2026-05-05 15:58 | 22.90019 | 38.59995 | 30651 ft | 507 kts | 330° |
| 2026-05-05 15:58 | 22.93233 | 38.58568 | 31175 ft | 505 kts | 330° |
| 2026-05-05 15:59 | 22.96482 | 38.57122 | 31656 ft | 503 kts | 330° |
| 2026-05-05 15:59 | 22.99720 | 38.55678 | 32084 ft | 503 kts | 329° |
| 2026-05-05 15:59 | 23.02965 | 38.54230 | 32503 ft | 503 kts | 329° |
| 2026-05-05 15:59 | 23.06206 | 38.52783 | 32936 ft | 503 kts | 329° |
| 2026-05-05 16:00 | 23.09440 | 38.51339 | 33377 ft | 502 kts | 329° |
| 2026-05-05 16:00 | 23.12671 | 38.49896 | 33813 ft | 501 kts | 329° |
| 2026-05-05 16:00 | 23.15898 | 38.48455 | 34185 ft | 501 kts | 329° |
| 2026-05-05 16:00 | 23.19119 | 38.47015 | 34591 ft | 499 kts | 329° |
| 2026-05-05 16:01 | 23.22329 | 38.45581 | 34993 ft | 497 kts | 329° |
| 2026-05-05 16:01 | 23.25524 | 38.44152 | 35361 ft | 496 kts | 329° |
| 2026-05-05 16:01 | 23.28717 | 38.42722 | 35707 ft | 496 kts | 328° |
| 2026-05-05 16:01 | 23.31908 | 38.41291 | 36026 ft | 496 kts | 328° |
| 2026-05-05 16:02 | 23.35102 | 38.39859 | 36358 ft | 495 kts | 328° |
| 2026-05-05 16:02 | 23.38287 | 38.38431 | 36696 ft | 494 kts | 328° |
| 2026-05-05 16:02 | 23.41464 | 38.37006 | 37019 ft | 494 kts | 328° |
| 2026-05-05 16:02 | 23.44589 | 38.35603 | 37329 ft | 493 kts | 328° |
| 2026-05-05 16:03 | 23.47764 | 38.34178 | 37703 ft | 492 kts | 328° |
| 2026-05-05 16:03 | 23.50931 | 38.32754 | 37920 ft | 493 kts | 328° |
| 2026-05-05 16:03 | 23.54113 | 38.31321 | 37881 ft | 495 kts | 328° |
| 2026-05-05 16:04 | 23.60458 | 38.28469 | 37873 ft | 490 kts | 328° |
| 2026-05-05 16:04 | 23.66749 | 38.25637 | 37874 ft | 488 kts | 328° |
| 2026-05-05 16:05 | 23.73022 | 38.22821 | 37874 ft | 487 kts | 328° |
| 2026-05-05 16:05 | 23.79251 | 38.20024 | 37877 ft | 487 kts | 327° |
| 2026-05-05 16:06 | 23.85530 | 38.17199 | 37878 ft | 488 kts | 327° |
| 2026-05-05 16:06 | 23.91813 | 38.14369 | 37825 ft | 488 kts | 327° |
| 2026-05-05 16:07 | 23.98088 | 38.11541 | 37800 ft | 488 kts | 327° |
| 2026-05-05 16:07 | 24.04340 | 38.08719 | 37817 ft | 488 kts | 327° |
| 2026-05-05 16:08 | 24.10633 | 38.05876 | 37781 ft | 489 kts | 327° |
| 2026-05-05 16:08 | 24.16721 | 38.02687 | 37774 ft | 477 kts | 318° |
| 2026-05-05 16:09 | 24.22158 | 37.98649 | 37781 ft | 471 kts | 315° |
| 2026-05-05 16:09 | 24.27542 | 37.94535 | 37798 ft | 471 kts | 315° |
| 2026-05-05 16:10 | 24.32943 | 37.90442 | 37796 ft | 472 kts | 315° |
| 2026-05-05 16:10 | 24.38319 | 37.86394 | 37812 ft | 472 kts | 315° |
| 2026-05-05 16:11 | 24.43720 | 37.82332 | 37826 ft | 470 kts | 315° |
| 2026-05-05 16:12 | 24.54500 | 37.74207 | 37837 ft | 468 kts | 315° |
| 2026-05-05 16:13 | 24.67893 | 37.64083 | 37900 ft | 467 kts | 315° |
| 2026-05-05 16:13 | 24.73209 | 37.60056 | 37900 ft | 467 kts | 315° |
| 2026-05-05 16:14 | 24.83896 | 37.51951 | 37898 ft | 466 kts | 315° |
| 2026-05-05 16:15 | 24.94571 | 37.43837 | 37914 ft | 466 kts | 315° |
| 2026-05-05 16:16 | 25.05263 | 37.35692 | 37926 ft | 467 kts | 315° |
| 2026-05-05 16:17 | 25.13250 | 37.29596 | 37925 ft | 467 kts | 315° |
| 2026-05-05 16:18 | 25.21273 | 37.23462 | 37935 ft | 468 kts | 315° |
| 2026-05-05 16:19 | 25.29324 | 37.17298 | 37931 ft | 468 kts | 315° |
| 2026-05-05 16:19 | 25.37352 | 37.11131 | 37922 ft | 468 kts | 315° |
| 2026-05-05 16:20 | 25.48042 | 37.02934 | 37915 ft | 468 kts | 315° |
| 2026-05-05 16:22 | 25.60530 | 36.93347 | 37915 ft | 469 kts | 315° |
| 2026-05-05 16:23 | 25.71254 | 36.85092 | 37915 ft | 469 kts | 315° |
| 2026-05-05 16:23 | 25.79272 | 36.78887 | 37913 ft | 468 kts | 315° |
| 2026-05-05 16:24 | 25.84582 | 36.74765 | 37921 ft | 467 kts | 315° |
| 2026-05-05 16:25 | 25.92582 | 36.68546 | 37916 ft | 467 kts | 315° |
| 2026-05-05 16:25 | 26.00544 | 36.62348 | 37923 ft | 467 kts | 315° |
| 2026-05-05 16:26 | 26.11191 | 36.54044 | 37905 ft | 467 kts | 315° |
| 2026-05-05 16:27 | 26.16500 | 36.49867 | 37913 ft | 464 kts | 313° |
| 2026-05-05 16:27 | 26.21213 | 36.45127 | 37913 ft | 452 kts | 304° |
| 2026-05-05 16:28 | 26.25560 | 36.40061 | 37909 ft | 452 kts | 304° |
| 2026-05-05 16:28 | 26.29886 | 36.35027 | 37940 ft | 453 kts | 304° |
| 2026-05-05 16:29 | 26.34277 | 36.29949 | 37923 ft | 454 kts | 304° |
| 2026-05-05 16:29 | 26.38670 | 36.24880 | 37929 ft | 454 kts | 304° |
| 2026-05-05 16:30 | 26.43061 | 36.19809 | 37922 ft | 454 kts | 304° |
| 2026-05-05 16:30 | 26.47450 | 36.14733 | 37920 ft | 454 kts | 304° |
| 2026-05-05 16:31 | 26.51806 | 36.09688 | 37920 ft | 454 kts | 304° |
| 2026-05-05 16:31 | 26.56179 | 36.04616 | 37927 ft | 454 kts | 304° |
| 2026-05-05 16:32 | 26.60557 | 35.99533 | 37922 ft | 453 kts | 304° |
| 2026-05-05 16:32 | 26.64935 | 35.94445 | 37926 ft | 453 kts | 304° |
| 2026-05-05 16:33 | 26.69312 | 35.89349 | 37931 ft | 454 kts | 304° |
| 2026-05-05 16:33 | 26.73681 | 35.84258 | 37929 ft | 453 kts | 304° |
| 2026-05-05 16:34 | 26.78022 | 35.79194 | 37927 ft | 453 kts | 304° |
| 2026-05-05 16:34 | 26.82380 | 35.74107 | 37941 ft | 453 kts | 304° |
| 2026-05-05 16:35 | 26.86752 | 35.68997 | 37931 ft | 453 kts | 304° |
| 2026-05-05 16:35 | 26.91104 | 35.63903 | 37923 ft | 453 kts | 304° |
| 2026-05-05 16:36 | 26.95457 | 35.58802 | 37938 ft | 453 kts | 304° |
| 2026-05-05 16:36 | 26.99804 | 35.53701 | 37939 ft | 452 kts | 304° |
| 2026-05-05 16:37 | 27.04158 | 35.48586 | 37968 ft | 453 kts | 304° |
| 2026-05-05 16:37 | 27.08511 | 35.43464 | 37942 ft | 453 kts | 305° |
| 2026-05-05 16:38 | 27.12859 | 35.38345 | 37936 ft | 453 kts | 305° |
| 2026-05-05 16:38 | 27.17203 | 35.33224 | 37936 ft | 453 kts | 304° |
| 2026-05-05 16:39 | 27.21519 | 35.28129 | 37937 ft | 452 kts | 304° |
| 2026-05-05 16:39 | 27.25854 | 35.23005 | 37936 ft | 452 kts | 305° |
| 2026-05-05 16:40 | 27.30183 | 35.17883 | 37941 ft | 452 kts | 305° |
| 2026-05-05 16:40 | 27.34524 | 35.12739 | 37935 ft | 452 kts | 304° |
| 2026-05-05 16:41 | 27.38859 | 35.07597 | 37938 ft | 452 kts | 304° |
| 2026-05-05 16:41 | 27.43188 | 35.02454 | 37942 ft | 453 kts | 305° |
| 2026-05-05 16:42 | 27.47502 | 34.97324 | 37948 ft | 453 kts | 305° |
| 2026-05-05 16:42 | 27.51856 | 34.92187 | 37934 ft | 454 kts | 307° |
| 2026-05-05 16:43 | 27.56451 | 34.87280 | 37930 ft | 455 kts | 309° |
| 2026-05-05 16:43 | 27.61070 | 34.82454 | 37932 ft | 455 kts | 308° |
| 2026-05-05 16:44 | 27.65688 | 34.77595 | 37935 ft | 454 kts | 308° |
| 2026-05-05 16:44 | 27.70300 | 34.72711 | 37948 ft | 454 kts | 308° |
| 2026-05-05 16:45 | 27.74900 | 34.67825 | 37940 ft | 454 kts | 308° |
| 2026-05-05 16:45 | 27.79464 | 34.62974 | 37953 ft | 455 kts | 309° |
| 2026-05-05 16:46 | 27.84076 | 34.58068 | 37956 ft | 456 kts | 309° |
| 2026-05-05 16:46 | 27.88687 | 34.53157 | 37967 ft | 455 kts | 309° |
| 2026-05-05 16:47 | 27.93272 | 34.48267 | 37970 ft | 455 kts | 309° |
| 2026-05-05 16:47 | 27.97881 | 34.43349 | 37962 ft | 455 kts | 309° |
| 2026-05-05 16:48 | 28.02163 | 34.38163 | 37963 ft | 447 kts | 302° |
| 2026-05-05 16:48 | 28.06078 | 34.32701 | 37982 ft | 446 kts | 302° |
| 2026-05-05 16:49 | 28.09967 | 34.27269 | 37982 ft | 446 kts | 302° |
| 2026-05-05 16:49 | 28.13895 | 34.21808 | 38015 ft | 447 kts | 302° |
| 2026-05-05 16:50 | 28.17836 | 34.16339 | 37981 ft | 448 kts | 302° |
| 2026-05-05 16:50 | 28.21783 | 34.10858 | 38002 ft | 448 kts | 302° |
| 2026-05-05 16:51 | 28.25727 | 34.05374 | 37995 ft | 449 kts | 302° |
| 2026-05-05 16:51 | 28.29654 | 33.99905 | 37985 ft | 449 kts | 302° |
| 2026-05-05 16:52 | 28.33593 | 33.94419 | 38035 ft | 446 kts | 302° |
| 2026-05-05 16:52 | 28.37392 | 33.89123 | 37950 ft | 431 kts | 302° |
| 2026-05-05 16:53 | 28.41123 | 33.83912 | 37832 ft | 415 kts | 302° |
| 2026-05-05 16:53 | 28.44695 | 33.78912 | 37719 ft | 400 kts | 301° |
| 2026-05-05 16:54 | 28.48122 | 33.74104 | 37559 ft | 387 kts | 301° |
| 2026-05-05 16:54 | 28.49802 | 33.71740 | 37390 ft | 383 kts | 301° |
| 2026-05-05 16:54 | 28.51474 | 33.69392 | 37130 ft | 381 kts | 301° |
| 2026-05-05 16:55 | 28.53145 | 33.67046 | 36757 ft | 382 kts | 301° |
| 2026-05-05 16:55 | 28.54816 | 33.64696 | 36545 ft | 379 kts | 301° |
| 2026-05-05 16:55 | 28.58079 | 33.60105 | 36153 ft | 372 kts | 301° |
| 2026-05-05 16:56 | 28.59701 | 33.57818 | 35916 ft | 370 kts | 301° |
| 2026-05-05 16:56 | 28.61310 | 33.55550 | 35690 ft | 367 kts | 301° |
| 2026-05-05 16:56 | 28.62911 | 33.53292 | 35445 ft | 365 kts | 301° |
| 2026-05-05 16:56 | 28.64482 | 33.51077 | 35229 ft | 363 kts | 301° |
| 2026-05-05 16:57 | 28.66064 | 33.48850 | 35002 ft | 361 kts | 301° |
| 2026-05-05 16:57 | 28.67637 | 33.46634 | 34747 ft | 360 kts | 302° |
| 2026-05-05 16:57 | 28.69208 | 33.44418 | 34433 ft | 360 kts | 302° |
| 2026-05-05 16:57 | 28.70785 | 33.42193 | 34122 ft | 361 kts | 302° |
| 2026-05-05 16:58 | 28.72364 | 33.39963 | 33797 ft | 361 kts | 302° |
| 2026-05-05 16:58 | 28.73941 | 33.37735 | 33440 ft | 361 kts | 302° |
| 2026-05-05 16:58 | 28.75518 | 33.35506 | 33065 ft | 362 kts | 302° |
| 2026-05-05 16:58 | 28.77099 | 33.33270 | 32690 ft | 363 kts | 302° |
| 2026-05-05 16:59 | 28.78686 | 33.31023 | 32303 ft | 364 kts | 302° |
| 2026-05-05 16:59 | 28.80277 | 33.28770 | 31928 ft | 365 kts | 302° |
| 2026-05-05 16:59 | 28.81865 | 33.26520 | 31572 ft | 365 kts | 302° |
| 2026-05-05 16:59 | 28.83461 | 33.24259 | 31219 ft | 366 kts | 302° |
| 2026-05-05 17:00 | 28.85079 | 33.21960 | 30398 ft | 378 kts | 303° |
| 2026-05-05 17:00 | 28.86769 | 33.19548 | 29074 ft | 400 kts | 303° |
| 2026-05-05 17:00 | 28.88544 | 33.17017 | 28017 ft | 413 kts | 303° |
| 2026-05-05 17:00 | 28.90321 | 33.14496 | 27588 ft | 411 kts | 304° |
| 2026-05-05 17:01 | 28.92104 | 33.11975 | 27349 ft | 404 kts | 304° |
| 2026-05-05 17:01 | 28.93858 | 33.09494 | 27133 ft | 397 kts | 304° |
| 2026-05-05 17:01 | 28.95583 | 33.07047 | 26835 ft | 393 kts | 304° |
| 2026-05-05 17:01 | 28.97292 | 33.04617 | 26435 ft | 391 kts | 304° |
| 2026-05-05 17:02 | 28.98993 | 33.02192 | 26030 ft | 391 kts | 304° |
| 2026-05-05 17:02 | 29.00689 | 32.99773 | 25649 ft | 389 kts | 304° |
| 2026-05-05 17:02 | 29.02376 | 32.97365 | 25299 ft | 387 kts | 304° |
| 2026-05-05 17:02 | 29.04049 | 32.94977 | 24966 ft | 385 kts | 304° |
| 2026-05-05 17:03 | 29.05719 | 32.92592 | 24636 ft | 383 kts | 304° |
| 2026-05-05 17:03 | 29.07380 | 32.90218 | 24301 ft | 381 kts | 304° |
| 2026-05-05 17:03 | 29.09032 | 32.87856 | 23969 ft | 379 kts | 304° |
| 2026-05-05 17:03 | 29.10676 | 32.85504 | 23652 ft | 378 kts | 304° |
| 2026-05-05 17:04 | 29.12296 | 32.83185 | 23298 ft | 376 kts | 304° |
| 2026-05-05 17:04 | 29.13921 | 32.80858 | 22920 ft | 374 kts | 304° |
| 2026-05-05 17:04 | 29.15544 | 32.78532 | 22590 ft | 372 kts | 304° |
| 2026-05-05 17:04 | 29.17154 | 32.76224 | 22244 ft | 370 kts | 304° |
| 2026-05-05 17:05 | 29.18755 | 32.73926 | 21907 ft | 368 kts | 304° |
| 2026-05-05 17:05 | 29.20348 | 32.71639 | 21573 ft | 367 kts | 304° |
| 2026-05-05 17:05 | 29.21938 | 32.69355 | 21253 ft | 365 kts | 304° |
| 2026-05-05 17:05 | 29.23505 | 32.67103 | 20917 ft | 364 kts | 304° |
| 2026-05-05 17:06 | 29.25075 | 32.64845 | 20607 ft | 362 kts | 304° |
| 2026-05-05 17:06 | 29.26641 | 32.62592 | 20296 ft | 361 kts | 304° |
| 2026-05-05 17:06 | 29.28220 | 32.60317 | 19592 ft | 370 kts | 304° |
| 2026-05-05 17:06 | 29.29844 | 32.57961 | 18712 ft | 383 kts | 304° |
| 2026-05-05 17:07 | 29.31516 | 32.55523 | 17797 ft | 394 kts | 305° |
| 2026-05-05 17:07 | 29.33212 | 32.53050 | 16841 ft | 387 kts | 305° |
| 2026-05-05 17:07 | 29.34856 | 32.50657 | 15458 ft | 378 kts | 305° |
| 2026-05-05 17:07 | 29.36477 | 32.48295 | 13990 ft | 375 kts | 306° |
| 2026-05-05 17:08 | 29.38075 | 32.45962 | 12486 ft | 370 kts | 306° |
| 2026-05-05 17:08 | 29.39662 | 32.43644 | 11077 ft | 367 kts | 307° |
| 2026-05-05 17:08 | 29.41201 | 32.41395 | 10350 ft | 349 kts | 307° |
| 2026-05-05 17:08 | 29.42627 | 32.39314 | 10113 ft | 322 kts | 307° |
| 2026-05-05 17:09 | 29.43958 | 32.37368 | 9938 ft | 298 kts | 307° |
| 2026-05-05 17:09 | 29.45200 | 32.35552 | 9729 ft | 280 kts | 307° |
| 2026-05-05 17:09 | 29.46358 | 32.33855 | 9433 ft | 271 kts | 307° |
| 2026-05-05 17:09 | 29.47516 | 32.32160 | 9371 ft | 269 kts | 307° |
| 2026-05-05 17:10 | 29.48662 | 32.30480 | 9342 ft | 266 kts | 307° |
| 2026-05-05 17:10 | 29.49794 | 32.28816 | 9344 ft | 262 kts | 306° |
| 2026-05-05 17:10 | 29.50537 | 32.27727 | 9327 ft | 261 kts | 307° |
| 2026-05-05 17:10 | 29.51659 | 32.26082 | 9196 ft | 262 kts | 307° |
| 2026-05-05 17:11 | 29.52777 | 32.24437 | 9174 ft | 260 kts | 307° |
| 2026-05-05 17:11 | 29.53857 | 32.22852 | 9115 ft | 258 kts | 307° |
| 2026-05-05 17:11 | 29.55002 | 32.21173 | 8913 ft | 263 kts | 307° |
| 2026-05-05 17:11 | 29.56137 | 32.19506 | 8777 ft | 264 kts | 307° |
| 2026-05-05 17:12 | 29.57261 | 32.17852 | 8754 ft | 262 kts | 307° |
| 2026-05-05 17:12 | 29.58379 | 32.16208 | 8690 ft | 260 kts | 307° |
| 2026-05-05 17:12 | 29.59489 | 32.14575 | 8627 ft | 259 kts | 307° |
| 2026-05-05 17:12 | 29.60595 | 32.12945 | 8592 ft | 257 kts | 307° |
| 2026-05-05 17:13 | 29.61693 | 32.11330 | 8521 ft | 256 kts | 307° |
| 2026-05-05 17:13 | 29.62786 | 32.09722 | 8433 ft | 256 kts | 307° |
| 2026-05-05 17:13 | 29.63886 | 32.08101 | 8278 ft | 259 kts | 308° |
| 2026-05-05 17:13 | 29.64998 | 32.06462 | 8173 ft | 259 kts | 308° |
| 2026-05-05 17:14 | 29.66092 | 32.04848 | 8086 ft | 259 kts | 308° |
| 2026-05-05 17:14 | 29.67203 | 32.03208 | 7990 ft | 259 kts | 308° |
| 2026-05-05 17:14 | 29.68309 | 32.01576 | 7907 ft | 259 kts | 308° |
| 2026-05-05 17:14 | 29.69415 | 31.99943 | 7851 ft | 257 kts | 308° |
| 2026-05-05 17:15 | 29.70506 | 31.98331 | 7837 ft | 254 kts | 308° |
| 2026-05-05 17:15 | 29.71589 | 31.96732 | 7777 ft | 253 kts | 308° |
| 2026-05-05 17:15 | 29.72673 | 31.95130 | 7646 ft | 255 kts | 308° |
| 2026-05-05 17:15 | 29.73770 | 31.93507 | 7463 ft | 259 kts | 308° |
| 2026-05-05 17:16 | 29.74885 | 31.91858 | 7246 ft | 264 kts | 308° |
| 2026-05-05 17:16 | 29.76028 | 31.90169 | 7053 ft | 269 kts | 308° |
| 2026-05-05 17:16 | 29.77179 | 31.88463 | 6938 ft | 270 kts | 308° |
| 2026-05-05 17:16 | 29.78217 | 31.86648 | 6711 ft | 275 kts | 299° |
| 2026-05-05 17:17 | 29.79026 | 31.84654 | 6658 ft | 273 kts | 293° |
| 2026-05-05 17:17 | 29.80024 | 31.81623 | 6562 ft | 271 kts | 291° |
| 2026-05-05 17:17 | 29.81326 | 31.77516 | 6163 ft | 279 kts | 291° |
| 2026-05-05 17:17 | 29.82492 | 31.73847 | 6085 ft | 274 kts | 292° |
| 2026-05-05 17:18 | 29.83347 | 31.71169 | 6024 ft | 272 kts | 292° |
| 2026-05-05 17:18 | 29.84670 | 31.67040 | 5777 ft | 274 kts | 292° |
| 2026-05-05 17:18 | 29.85992 | 31.62914 | 5519 ft | 277 kts | 292° |
| 2026-05-05 17:18 | 29.87322 | 31.58761 | 5370 ft | 274 kts | 292° |
| 2026-05-05 17:19 | 29.88633 | 31.54666 | 5269 ft | 272 kts | 292° |
| 2026-05-05 17:19 | 29.89920 | 31.50637 | 5235 ft | 264 kts | 293° |
| 2026-05-05 17:19 | 29.91187 | 31.46677 | 5241 ft | 265 kts | 292° |
| 2026-05-05 17:19 | 29.92480 | 31.42624 | 5254 ft | 273 kts | 292° |
| 2026-05-05 17:20 | 29.93620 | 31.39044 | 5263 ft | 273 kts | 292° |
| 2026-05-05 17:20 | 29.94271 | 31.36999 | 5255 ft | 269 kts | 292° |
| 2026-05-05 17:20 | 29.94930 | 31.34963 | 5021 ft | 270 kts | 295° |
| 2026-05-05 17:20 | 29.95957 | 31.33175 | 4243 ft | 268 kts | 316° |
| 2026-05-05 17:21 | 29.97487 | 31.31939 | 3195 ft | 270 kts | 335° |
| 2026-05-05 17:21 | 29.99221 | 31.31305 | 2797 ft | 250 kts | 349° |
| 2026-05-05 17:21 | 30.00836 | 31.31013 | 2566 ft | 227 kts | 341° |
| 2026-05-05 17:22 | 30.03684 | 31.30757 | 2489 ft | 214 kts | 27° |
| 2026-05-05 17:22 | 30.04745 | 31.32023 | 2348 ft | 231 kts | 58° |
| 2026-05-05 17:22 | 30.05467 | 31.33667 | 2041 ft | 225 kts | 51° |
| 2026-05-05 17:22 | 30.06392 | 31.35066 | 1781 ft | 220 kts | 46° |
| 2026-05-05 17:23 | 30.07373 | 31.36418 | 1500 ft | 220 kts | 44° |
| 2026-05-05 17:23 | 30.08383 | 31.37730 | 1168 ft | 210 kts | 45° |
| 2026-05-05 17:23 | 30.09283 | 31.38932 | 887 ft | 184 kts | 44° |
| 2026-05-05 17:23 | 30.10045 | 31.39949 | 659 ft | 155 kts | 43° |
| 2026-05-05 17:24 | 30.10735 | 31.40840 | 377 ft | 136 kts | 43° |
| 2026-05-05 17:24 | 30.11189 | 31.41432 | 378 ft | 69 kts | 48° |
| 2026-05-05 17:24 | 30.11420 | 31.41600 | 379 ft | 31 kts | 16° |
| 2026-05-05 17:24 | 30.11559 | 31.41616 | 379 ft | 11 kts | 345° |
| 2026-05-05 17:25 | 30.11583 | 31.41550 | 379 ft | 11 kts | 232° |
| 2026-05-05 17:25 | 30.11546 | 31.41509 | 379 ft | 11 kts | 223° |
| 2026-05-05 17:25 | 30.11470 | 31.41421 | 379 ft | 12 kts | 227° |
| 2026-05-05 17:25 | 30.11414 | 31.41351 | 379 ft | 12 kts | 227° |
| 2026-05-05 17:26 | 30.11357 | 31.41277 | 379 ft | 12 kts | 229° |
| 2026-05-05 17:26 | 30.11301 | 31.41203 | 379 ft | 12 kts | 229° |
| 2026-05-05 17:26 | 30.11246 | 31.41128 | 379 ft | 12 kts | 230° |
| 2026-05-05 17:26 | 30.11191 | 31.41052 | 379 ft | 12 kts | 230° |
| 2026-05-05 17:27 | 30.11137 | 31.40978 | 379 ft | 12 kts | 230° |
| 2026-05-05 17:27 | 30.11083 | 31.40901 | 379 ft | 12 kts | 237° |
| 2026-05-05 17:27 | 30.11081 | 31.40804 | 379 ft | 13 kts | 276° |
| 2026-05-05 17:27 | 30.11051 | 31.40711 | 379 ft | 13 kts | 228° |
| 2026-05-05 17:28 | 30.10994 | 31.40631 | 379 ft | 13 kts | 230° |
| 2026-05-05 17:28 | 30.10935 | 31.40551 | 379 ft | 13 kts | 229° |
| 2026-05-05 17:28 | 30.10871 | 31.40467 | 379 ft | 20 kts | 228° |
| 2026-05-05 17:28 | 30.10739 | 31.40298 | 379 ft | 28 kts | 229° |
| 2026-05-05 17:29 | 30.10624 | 31.40144 | 379 ft | 24 kts | 229° |
| 2026-05-05 17:29 | 30.10538 | 31.40030 | 379 ft | 15 kts | 229° |
| 2026-05-05 17:29 | 30.10484 | 31.39932 | 379 ft | 15 kts | 259° |
| 2026-05-05 17:29 | 30.10546 | 31.39855 | 379 ft | 15 kts | 345° |
| 2026-05-05 17:30 | 30.10635 | 31.39819 | 379 ft | 13 kts | 322° |
| 2026-05-05 17:30 | 30.10645 | 31.39719 | 379 ft | 13 kts | 255° |
| 2026-05-05 17:30 | 30.10622 | 31.39615 | 379 ft | 13 kts | 256° |
| 2026-05-05 17:30 | 30.10599 | 31.39511 | 379 ft | 13 kts | 255° |
| 2026-05-05 17:31 | 30.10574 | 31.39407 | 379 ft | 13 kts | 255° |
| 2026-05-05 17:31 | 30.10551 | 31.39303 | 379 ft | 13 kts | 255° |
| 2026-05-05 17:31 | 30.10530 | 31.39207 | 379 ft | 11 kts | 258° |
| 2026-05-05 17:31 | 30.10565 | 31.39138 | 379 ft | 11 kts | 343° |
| 2026-05-05 17:32 | 30.10641 | 31.39114 | 379 ft | 11 kts | 344° |
| 2026-05-05 17:32 | 30.10677 | 31.39076 | 379 ft | 8 kts | 269° |
| 2026-05-05 17:32 | 30.10660 | 31.39020 | 379 ft | 6 kts | 253° |
| 2026-05-05 17:32 | 30.10658 | 31.39011 | 379 ft | 0 kts | 254° |